Point Mugu Naval Air Station (Naval Base Ventura Co)
KNTD : now visible

Airfield :











YOU CAN JOIN US ON...

 
LOGIN :

Register | Disclaimer

   EN    FR    IT 

 









Legend :    VFR   Marginal VFR   IFR   Intensive IFR   Very Intensive IFR
Visi :
Ceiling :
>= 8 km
>= 3000ft
5 to 8 km
1000 to 3000 ft
1500m to 5 km
500 to 1000 ft
800 to 1500m
200 to 500 ft
< 800m
< 200 ft
Symbols :   Thunderstorms  Fog  Heavy snow  Heavy precipitations  Wind > 20 kt






- Airport Elevation : 13 ft


KNTD - Point Mugu Naval Air Station (Naval Base Ventura Co)

CURRENT METAR :
  • 220352Z 06004KT 10SM FEW015 12/09 A3002 RMK AO2 SLP166 T01220094 VISNO N $

EXPIRED METARs :
  • 220252Z 00000KT 10SM CLR 12/09 A2999 RMK AO2 SLP157 T01220094 53019 VISNO N $
  • 220152Z 00000KT 10SM CLR 14/10 A2997 RMK AO2 SLP149 T01390100 VISNO N $

TAF TAF KNTD
Valid from the 21 at 23:00 until the 22 at 23:00 UTC


2123/2223 20008KT 9999 FEW025 FEW065 QNH2988INS
BECMG 2200/2202 VRB06KT 9999 FEW025 QNH2991INS
TEMPO 2212/2218 06008KT
FM221900 20008KT 9999 FEW065 SCT260 QNH3003INS AUTOMATED SENSOR METWATCH 2207 TIL 2214 T09/2213Z T19/2220Z FS30101



MET'MAP, your aeronautical weather chart ! - Copyright ORBIFLY December 2007 - Disclaimer

ORBIFLY MET'MAP TEAM :

Programming & Development : Alexandra Zaïnal
Concept & Development : Baudouin d'Aumeries
Co-Development & Prog : Marc-Olivier Méhu
Technical & hardware support : Manuel Goepfert

Contact : metmap@orbifly.com




SOURCES & CREDITS :

   NOAA       Earth
Advisory